Dubai, United Arab Emirates
Current Conditions -  °F | °C
As of 3:00 AM on Monday 22 Dec 2014 (Local Time) from OMDB Reporting Station
Clear Clear  
Wind Chill: 63°   Ceiling: Unl
Heat Index: 63°   Visibility: 6mi
Dew Point: 52°   Wind: 6mph
Humidity: 68%   Direction: 170°S
Pressure: 29.97"   Gusts: NA
Location:  25.27°N, 55.33°E
Report Text: OMDB 212300Z 17005KT CAVOK 17/11 Q1015 NOSIG
Loading
Personal Weather Stations






























Interactive Weather Map New forecast layout! Learn more

10-Day Weather Forecast

Advertisements
Track Severe Weather on mobile